4XCWH LLHA-LLHA
Flight info
| Callsign | 4XCWH |
|---|---|
| Flight time | 0h 9m |
| Altitude | 1000 |
| Route | CVFR |
| Aircraft | C152/L-VD/A |
Departure
| Time | 2026-04-25 13:57 |
|---|---|
| Airport | Uri Michaeli Haifa International Airport (LLHA) |
Arrival
| Time | 2026-04-25 14:06 |
|---|---|
| Airport | Uri Michaeli Haifa International Airport (LLHA) |
| Time | Latitude | Longitude | Altitude | Speed | Heading |
|---|---|---|---|---|---|
| 2026-04-25 13:48 | 32.81155 | 35.04175 | 19 ft | 0 kts | 140° |
| 2026-04-25 13:54 | 32.81150 | 35.04180 | 19 ft | 7 kts | 131° |
| 2026-04-25 13:54 | 32.81155 | 35.04230 | 20 ft | 0 kts | 73° |
| 2026-04-25 13:55 | 32.81168 | 35.04277 | 21 ft | 15 kts | 73° |
| 2026-04-25 13:55 | 32.81109 | 35.04334 | 20 ft | 18 kts | 161° |
| 2026-04-25 13:55 | 32.80933 | 35.04410 | 22 ft | 36 kts | 159° |
| 2026-04-25 13:55 | 32.80698 | 35.04506 | 20 ft | 34 kts | 161° |
| 2026-04-25 13:56 | 32.80546 | 35.04570 | 17 ft | 9 kts | 138° |
| 2026-04-25 13:56 | 32.80563 | 35.04576 | 17 ft | 3 kts | 319° |
| 2026-04-25 13:56 | 32.80589 | 35.04562 | 18 ft | 18 kts | 339° |
| 2026-04-25 13:56 | 32.80872 | 35.04439 | 22 ft | 64 kts | 339° |
| 2026-04-25 13:57 | 32.81304 | 35.04291 | 224 ft | 59 kts | 347° |
| 2026-04-25 13:57 | 32.81559 | 35.04235 | 364 ft | 57 kts | 347° |
| 2026-04-25 13:57 | 32.82083 | 35.04050 | 586 ft | 58 kts | 348° |
| 2026-04-25 13:57 | 32.82485 | 35.04160 | 687 ft | 72 kts | 33° |
| 2026-04-25 13:58 | 32.82738 | 35.04709 | 849 ft | 88 kts | 88° |
| 2026-04-25 13:58 | 32.82388 | 35.05331 | 993 ft | 102 kts | 146° |
| 2026-04-25 13:58 | 32.81740 | 35.05789 | 984 ft | 116 kts | 152° |
| 2026-04-25 13:58 | 32.80944 | 35.06113 | 868 ft | 119 kts | 168° |
| 2026-04-25 13:59 | 32.80230 | 35.06364 | 766 ft | 99 kts | 154° |
| 2026-04-25 13:59 | 32.79711 | 35.06816 | 784 ft | 86 kts | 144° |
| 2026-04-25 13:59 | 32.79189 | 35.07133 | 795 ft | 84 kts | 193° |
| 2026-04-25 13:59 | 32.78699 | 35.06813 | 817 ft | 86 kts | 228° |
| 2026-04-25 14:00 | 32.78330 | 35.06307 | 710 ft | 74 kts | 272° |
| 2026-04-25 14:00 | 32.78565 | 35.05794 | 635 ft | 74 kts | 304° |
| 2026-04-25 14:00 | 32.78900 | 35.05326 | 521 ft | 75 kts | 321° |
| 2026-04-25 14:00 | 32.79359 | 35.05082 | 413 ft | 73 kts | 338° |
| 2026-04-25 14:01 | 32.79849 | 35.04879 | 284 ft | 75 kts | 340° |
| 2026-04-25 14:01 | 32.80239 | 35.04713 | 134 ft | 55 kts | 338° |
| 2026-04-25 14:01 | 32.80586 | 35.04563 | 22 ft | 53 kts | 339° |
| 2026-04-25 14:01 | 32.80891 | 35.04428 | 22 ft | 58 kts | 340° |
| 2026-04-25 14:02 | 32.81304 | 35.04258 | 207 ft | 59 kts | 340° |
| 2026-04-25 14:02 | 32.81694 | 35.04122 | 373 ft | 60 kts | 344° |
| 2026-04-25 14:02 | 32.82097 | 35.03965 | 539 ft | 62 kts | 345° |
| 2026-04-25 14:02 | 32.82388 | 35.03928 | 623 ft | 66 kts | 2° |
| 2026-04-25 14:03 | 32.82822 | 35.04603 | 689 ft | 100 kts | 75° |
| 2026-04-25 14:03 | 32.82518 | 35.05347 | 787 ft | 110 kts | 142° |
| 2026-04-25 14:03 | 32.81890 | 35.05871 | 814 ft | 109 kts | 148° |
| 2026-04-25 14:03 | 32.81273 | 35.06323 | 890 ft | 108 kts | 149° |
| 2026-04-25 14:04 | 32.80533 | 35.06668 | 728 ft | 119 kts | 167° |
| 2026-04-25 14:04 | 32.79754 | 35.07031 | 665 ft | 121 kts | 157° |
| 2026-04-25 14:04 | 32.79059 | 35.07042 | 744 ft | 90 kts | 220° |
| 2026-04-25 14:04 | 32.78998 | 35.06988 | 745 ft | 89 kts | 223° |
| 2026-04-25 14:05 | 32.78652 | 35.06560 | 707 ft | 86 kts | 237° |
| 2026-04-25 14:05 | 32.78614 | 35.05977 | 591 ft | 75 kts | 308° |
| 2026-04-25 14:05 | 32.78993 | 35.05510 | 515 ft | 85 kts | 319° |
| 2026-04-25 14:06 | 32.79470 | 35.05107 | 373 ft | 85 kts | 329° |
| 2026-04-25 14:06 | 32.79907 | 35.04869 | 243 ft | 58 kts | 338° |
| 2026-04-25 14:06 | 32.80277 | 35.04700 | 138 ft | 57 kts | 339° |
| 2026-04-25 14:06 | 32.80624 | 35.04548 | 22 ft | 47 kts | 339° |
| 2026-04-25 14:07 | 32.80942 | 35.04406 | 22 ft | 62 kts | 340° |
| 2026-04-25 14:07 | 32.81378 | 35.04226 | 189 ft | 64 kts | 341° |
| 2026-04-25 14:07 | 32.81776 | 35.04101 | 421 ft | 56 kts | 343° |
| 2026-04-25 14:07 | 32.82161 | 35.04011 | 580 ft | 60 kts | 6° |
| 2026-04-25 14:08 | 32.82576 | 35.04267 | 694 ft | 79 kts | 37° |
| 2026-04-25 14:08 | 32.82976 | 35.04772 | 870 ft | 89 kts | 61° |
| 2026-04-25 14:08 | 32.82689 | 35.05453 | 900 ft | 100 kts | 157° |
| 2026-04-25 14:08 | 32.82035 | 35.05815 | 934 ft | 105 kts | 155° |
| 2026-04-25 14:09 | 32.81351 | 35.06176 | 936 ft | 110 kts | 160° |
| 2026-04-25 14:09 | 32.80607 | 35.06492 | 901 ft | 119 kts | 161° |
| 2026-04-25 14:09 | 32.79832 | 35.06859 | 962 ft | 117 kts | 146° |
| 2026-04-25 14:09 | 32.79399 | 35.07242 | 915 ft | 120 kts | 159° |
| 2026-04-25 14:10 | 32.78555 | 35.06702 | 795 ft | 109 kts | 243° |
| 2026-04-25 14:10 | 32.78307 | 35.05926 | 641 ft | 91 kts | 292° |
| 2026-04-25 14:10 | 32.78754 | 35.05453 | 564 ft | 89 kts | 326° |
| 2026-04-25 14:10 | 32.79254 | 35.05149 | 435 ft | 71 kts | 337° |
| 2026-04-25 14:11 | 32.79719 | 35.04952 | 304 ft | 69 kts | 341° |
| 2026-04-25 14:11 | 32.80123 | 35.04769 | 172 ft | 60 kts | 338° |
| 2026-04-25 14:11 | 32.80513 | 35.04596 | 38 ft | 57 kts | 338° |
| 2026-04-25 14:11 | 32.80852 | 35.04447 | 21 ft | 55 kts | 339° |
| 2026-04-25 14:12 | 32.81275 | 35.04266 | 155 ft | 62 kts | 340° |
| 2026-04-25 14:12 | 32.81658 | 35.04105 | 400 ft | 54 kts | 337° |
| 2026-04-25 14:12 | 32.82018 | 35.03936 | 570 ft | 56 kts | 342° |
| 2026-04-25 14:12 | 32.82411 | 35.04154 | 661 ft | 77 kts | 41° |
| 2026-04-25 14:13 | 32.82792 | 35.04638 | 840 ft | 85 kts | 48° |
| 2026-04-25 14:13 | 32.82674 | 35.05324 | 961 ft | 99 kts | 143° |
| 2026-04-25 14:13 | 32.82027 | 35.05749 | 889 ft | 110 kts | 156° |
| 2026-04-25 14:13 | 32.81316 | 35.06076 | 848 ft | 110 kts | 166° |
| 2026-04-25 14:14 | 32.80622 | 35.06270 | 811 ft | 98 kts | 170° |
| 2026-04-25 14:14 | 32.79998 | 35.06494 | 815 ft | 96 kts | 148° |
| 2026-04-25 14:14 | 32.79468 | 35.07042 | 838 ft | 99 kts | 149° |
| 2026-04-25 14:14 | 32.78885 | 35.06943 | 795 ft | 89 kts | 231° |
| 2026-04-25 14:15 | 32.78456 | 35.06389 | 670 ft | 91 kts | 233° |
| 2026-04-25 14:15 | 32.78318 | 35.06207 | 619 ft | 85 kts | 235° |
| 2026-04-25 14:15 | 32.78569 | 35.05469 | 541 ft | 75 kts | 334° |
| 2026-04-25 14:15 | 32.79033 | 35.05262 | 488 ft | 68 kts | 336° |
| 2026-04-25 14:16 | 32.79497 | 35.05044 | 368 ft | 74 kts | 340° |
| 2026-04-25 14:16 | 32.79936 | 35.04853 | 240 ft | 59 kts | 337° |
| 2026-04-25 14:16 | 32.80325 | 35.04674 | 106 ft | 60 kts | 339° |
| 2026-04-25 14:16 | 32.80663 | 35.04530 | 20 ft | 51 kts | 338° |
| 2026-04-25 14:17 | 32.81054 | 35.04358 | 32 ft | 72 kts | 339° |
| 2026-04-25 14:17 | 32.81478 | 35.04196 | 338 ft | 56 kts | 342° |
| 2026-04-25 14:17 | 32.81686 | 35.04103 | 491 ft | 56 kts | 340° |
| 2026-04-25 14:17 | 32.81892 | 35.04004 | 578 ft | 59 kts | 338° |
| 2026-04-25 14:18 | 32.82138 | 35.03899 | 643 ft | 67 kts | 338° |
| 2026-04-25 14:18 | 32.82541 | 35.04074 | 787 ft | 80 kts | 45° |
| 2026-04-25 14:18 | 32.82896 | 35.04673 | 867 ft | 95 kts | 54° |
| 2026-04-25 14:18 | 32.82641 | 35.05370 | 864 ft | 113 kts | 159° |
| 2026-04-25 14:19 | 32.81895 | 35.05609 | 831 ft | 112 kts | 170° |
| 2026-04-25 14:19 | 32.81128 | 35.05823 | 852 ft | 115 kts | 160° |
| 2026-04-25 14:19 | 32.80667 | 35.06176 | 908 ft | 116 kts | 138° |
| 2026-04-25 14:20 | 32.80427 | 35.06411 | 945 ft | 116 kts | 141° |
| 2026-04-25 14:20 | 32.80211 | 35.06610 | 980 ft | 116 kts | 143° |
| 2026-04-25 14:20 | 32.79126 | 35.07437 | 1240 ft | 105 kts | 149° |
| 2026-04-25 14:20 | 32.78428 | 35.07513 | 1358 ft | 103 kts | 197° |
| 2026-04-25 14:21 | 32.77844 | 35.07131 | 1288 ft | 90 kts | 231° |
| 2026-04-25 14:21 | 32.77710 | 35.06465 | 970 ft | 91 kts | 304° |
| 2026-04-25 14:21 | 32.78147 | 35.05935 | 764 ft | 89 kts | 321° |
| 2026-04-25 14:21 | 32.78629 | 35.05537 | 629 ft | 76 kts | 328° |
| 2026-04-25 14:22 | 32.79037 | 35.05247 | 517 ft | 66 kts | 324° |
| 2026-04-25 14:22 | 32.79418 | 35.04979 | 359 ft | 60 kts | 338° |
| 2026-04-25 14:22 | 32.79805 | 35.04868 | 242 ft | 56 kts | 342° |
| 2026-04-25 14:22 | 32.80168 | 35.04726 | 147 ft | 55 kts | 341° |
| 2026-04-25 14:23 | 32.80533 | 35.04582 | 27 ft | 52 kts | 340° |
| 2026-04-25 14:23 | 32.80896 | 35.04428 | 41 ft | 65 kts | 340° |
| 2026-04-25 14:23 | 32.81325 | 35.04240 | 216 ft | 69 kts | 337° |
| 2026-04-25 14:23 | 32.81845 | 35.04003 | 181 ft | 90 kts | 340° |
| 2026-04-25 14:24 | 32.82443 | 35.03885 | 327 ft | 85 kts | 16° |
| 2026-04-25 14:24 | 32.82869 | 35.04470 | 357 ft | 103 kts | 51° |
| 2026-04-25 14:24 | 32.82957 | 35.05279 | 359 ft | 110 kts | 114° |
| 2026-04-25 14:24 | 32.82513 | 35.05998 | 384 ft | 102 kts | 126° |
| 2026-04-25 14:25 | 32.82067 | 35.06600 | 331 ft | 94 kts | 131° |
| 2026-04-25 14:25 | 32.81626 | 35.07119 | 277 ft | 87 kts | 131° |
| 2026-04-25 14:25 | 32.81219 | 35.07630 | 355 ft | 86 kts | 135° |
| 2026-04-25 14:25 | 32.81083 | 35.07798 | 436 ft | 81 kts | 133° |
| 2026-04-25 14:26 | 32.80370 | 35.08497 | 686 ft | 85 kts | 140° |
| 2026-04-25 14:26 | 32.79860 | 35.08646 | 759 ft | 88 kts | 203° |
| 2026-04-25 14:26 | 32.79264 | 35.08363 | 724 ft | 87 kts | 228° |
| 2026-04-25 14:26 | 32.79238 | 35.07776 | 660 ft | 72 kts | 289° |
| 2026-04-25 14:27 | 32.79401 | 35.07191 | 665 ft | 73 kts | 297° |
| 2026-04-25 14:27 | 32.79540 | 35.06835 | 712 ft | 74 kts | 299° |
| 2026-04-25 14:27 | 32.79782 | 35.06254 | 791 ft | 84 kts | 299° |
| 2026-04-25 14:27 | 32.80116 | 35.05671 | 764 ft | 87 kts | 307° |
| 2026-04-25 14:28 | 32.80451 | 35.05103 | 741 ft | 81 kts | 304° |
| 2026-04-25 14:28 | 32.80725 | 35.04556 | 714 ft | 74 kts | 307° |
| 2026-04-25 14:28 | 32.81061 | 35.04140 | 649 ft | 65 kts | 329° |
| 2026-04-25 14:28 | 32.81405 | 35.04298 | 649 ft | 66 kts | 59° |
| 2026-04-25 14:29 | 32.81527 | 35.04819 | 745 ft | 70 kts | 69° |
| 2026-04-25 14:29 | 32.81667 | 35.05424 | 1009 ft | 75 kts | 71° |
| 2026-04-25 14:29 | 32.81709 | 35.06026 | 1210 ft | 79 kts | 99° |
| 2026-04-25 14:29 | 32.81237 | 35.06533 | 1084 ft | 111 kts | 166° |
| 2026-04-25 14:30 | 32.80449 | 35.06723 | 815 ft | 115 kts | 171° |
| 2026-04-25 14:30 | 32.79121 | 35.07088 | 659 ft | 67 kts | 227° |
| 2026-04-25 14:30 | 32.78780 | 35.06731 | 785 ft | 66 kts | 230° |
| 2026-04-25 14:31 | 32.78442 | 35.06323 | 778 ft | 73 kts | 232° |
| 2026-04-25 14:31 | 32.78217 | 35.06032 | 746 ft | 72 kts | 246° |
| 2026-04-25 14:31 | 32.78495 | 35.05409 | 656 ft | 79 kts | 329° |
| 2026-04-25 14:31 | 32.79017 | 35.05153 | 527 ft | 83 kts | 340° |
| 2026-04-25 14:32 | 32.79475 | 35.05008 | 383 ft | 61 kts | 343° |
| 2026-04-25 14:32 | 32.79852 | 35.04870 | 257 ft | 56 kts | 339° |
| 2026-04-25 14:32 | 32.80221 | 35.04713 | 135 ft | 55 kts | 340° |
| 2026-04-25 14:32 | 32.80572 | 35.04567 | 29 ft | 52 kts | 338° |
| 2026-04-25 14:33 | 32.80792 | 35.04469 | 20 ft | 46 kts | 340° |
| 2026-04-25 14:33 | 32.81191 | 35.04300 | 96 ft | 54 kts | 341° |
| 2026-04-25 14:33 | 32.81562 | 35.04130 | 364 ft | 59 kts | 340° |
| 2026-04-25 14:33 | 32.81941 | 35.03958 | 656 ft | 59 kts | 342° |
| 2026-04-25 14:34 | 32.82345 | 35.03855 | 906 ft | 64 kts | 16° |
| 2026-04-25 14:34 | 32.82724 | 35.04299 | 889 ft | 96 kts | 43° |
| 2026-04-25 14:34 | 32.82939 | 35.05023 | 981 ft | 102 kts | 103° |
| 2026-04-25 14:34 | 32.82378 | 35.05553 | 875 ft | 115 kts | 164° |
| 2026-04-25 14:35 | 32.81611 | 35.05778 | 864 ft | 111 kts | 171° |
| 2026-04-25 14:35 | 32.80839 | 35.05907 | 773 ft | 110 kts | 178° |
| 2026-04-25 14:35 | 32.80161 | 35.06258 | 694 ft | 109 kts | 142° |
| 2026-04-25 14:35 | 32.79623 | 35.06776 | 835 ft | 94 kts | 142° |
| 2026-04-25 14:36 | 32.79085 | 35.07146 | 915 ft | 83 kts | 194° |
| 2026-04-25 14:36 | 32.78642 | 35.06686 | 850 ft | 98 kts | 232° |
| 2026-04-25 14:36 | 32.78252 | 35.06024 | 697 ft | 92 kts | 262° |
| 2026-04-25 14:36 | 32.78524 | 35.05465 | 577 ft | 79 kts | 323° |
| 2026-04-25 14:37 | 32.78992 | 35.05128 | 419 ft | 77 kts | 335° |
| 2026-04-25 14:37 | 32.79470 | 35.04942 | 345 ft | 64 kts | 345° |
| 2026-04-25 14:37 | 32.79856 | 35.04847 | 244 ft | 52 kts | 343° |
| 2026-04-25 14:37 | 32.80187 | 35.04733 | 137 ft | 52 kts | 339° |
| 2026-04-25 14:38 | 32.80538 | 35.04583 | 26 ft | 50 kts | 340° |
| 2026-04-25 14:38 | 32.80805 | 35.04466 | 20 ft | 38 kts | 340° |
| 2026-04-25 14:38 | 32.80957 | 35.04384 | 22 ft | 12 kts | 283° |
| 2026-04-25 14:38 | 32.80914 | 35.04324 | 22 ft | 10 kts | 225° |